createdAt,value
2018-09-06T00:03:32.341Z,31.80
2018-09-06T00:06:00.812Z,30.03
2018-09-06T00:08:29.273Z,28.40
2018-09-06T00:10:57.798Z,27.00
2018-09-06T00:13:26.232Z,25.73
2018-09-06T00:15:54.715Z,25.93
2018-09-06T00:18:23.247Z,25.97
2018-09-06T00:20:51.681Z,24.67
2018-09-06T00:23:20.188Z,26.67
2018-09-06T00:25:48.644Z,26.70
2018-09-06T00:28:17.164Z,26.23
2018-09-06T00:30:45.609Z,27.27
2018-09-06T00:33:14.109Z,29.20
2018-09-06T00:35:42.584Z,28.97
2018-09-06T00:38:11.076Z,29.70
2018-09-06T00:40:39.617Z,31.07
2018-09-06T00:43:08.108Z,31.60
2018-09-06T00:45:37.544Z,30.40
2018-09-06T00:48:06.002Z,31.27
2018-09-06T00:50:38.817Z,30.33
2018-09-06T00:53:07.344Z,30.50
2018-09-06T00:55:36.683Z,31.40
2018-09-06T00:58:05.164Z,28.87
2018-09-06T01:00:33.646Z,28.90
2018-09-06T01:03:02.129Z,29.57
2018-09-06T01:05:31.036Z,30.00
2018-09-06T01:07:59.804Z,31.83
2018-09-06T01:10:28.319Z,30.10
2018-09-06T01:12:56.844Z,32.90
2018-09-06T01:15:26.305Z,32.63
2018-09-06T01:17:54.769Z,32.90
2018-09-06T01:20:23.253Z,32.70
2018-09-06T01:22:51.768Z,32.70
2018-09-06T01:25:20.211Z,31.37
2018-09-06T01:27:48.665Z,32.23
2018-09-06T01:30:17.321Z,32.37
2018-09-06T01:32:45.769Z,32.97
2018-09-06T01:35:14.268Z,32.77
2018-09-06T01:37:42.697Z,32.97
2018-09-06T01:40:11.194Z,32.73
2018-09-06T01:42:39.717Z,34.00
2018-09-06T01:45:08.181Z,35.20
2018-09-06T01:47:36.668Z,35.00
2018-09-06T01:50:05.444Z,36.60
2018-09-06T01:52:34.001Z,39.50
2018-09-06T01:55:02.485Z,38.93
2018-09-06T01:57:31.004Z,41.27
2018-09-06T01:59:59.443Z,40.23
2018-09-06T02:02:27.928Z,42.17
2018-09-06T02:04:57.456Z,40.57
2018-09-06T02:07:25.968Z,40.80
2018-09-06T02:09:54.476Z,41.63
2018-09-06T02:12:23.029Z,42.70
2018-09-06T02:14:51.454Z,42.43
2018-09-06T02:17:19.981Z,45.90
2018-09-06T02:19:48.412Z,42.87
2018-09-06T02:22:16.930Z,41.70
2018-09-06T02:24:45.432Z,41.87
2018-09-06T02:27:13.916Z,41.87
2018-09-06T02:29:42.349Z,43.07
2018-09-06T02:32:11.884Z,41.53
2018-09-06T02:34:40.344Z,41.37
2018-09-06T02:37:08.827Z,44.47
2018-09-06T02:39:37.292Z,46.50
2018-09-06T02:42:05.963Z,47.40
2018-09-06T02:44:34.473Z,46.23
2018-09-06T02:47:02.940Z,47.57
2018-09-06T02:49:36.886Z,47.20
2018-09-06T02:52:05.347Z,46.17
2018-09-06T02:54:33.848Z,48.17
2018-09-06T02:57:02.481Z,50.80
2018-09-06T02:59:31.016Z,48.10
2018-09-06T03:01:59.460Z,49.97
2018-09-06T03:04:27.977Z,51.30
2018-09-06T03:06:56.459Z,49.70
2018-09-06T03:09:24.973Z,50.07
2018-09-06T03:11:57.685Z,48.73
2018-09-06T03:14:26.217Z,50.57
2018-09-06T03:16:54.712Z,46.50
2018-09-06T03:19:23.196Z,49.00
2018-09-06T03:21:51.951Z,46.20
2018-09-06T03:24:20.467Z,45.23
2018-09-06T03:26:48.918Z,46.43
2018-09-06T03:29:17.451Z,47.87
2018-09-06T03:31:45.886Z,45.73
2018-09-06T03:34:14.351Z,43.80
2018-09-06T03:36:42.832Z,46.47
2018-09-06T03:39:11.320Z,44.63
2018-09-06T03:41:40.025Z,43.63
2018-09-06T03:44:08.520Z,47.27
2018-09-06T03:46:37.025Z,47.67
2018-09-06T03:49:05.444Z,45.53
2018-09-06T03:51:34.314Z,44.63
2018-09-06T03:54:02.860Z,45.53
2018-09-06T03:56:31.309Z,44.03
2018-09-06T03:58:59.807Z,44.70
2018-09-06T04:01:28.285Z,43.10
2018-09-06T04:03:56.768Z,45.53
2018-09-06T04:06:25.233Z,43.90
2018-09-06T04:08:53.722Z,45.63
2018-09-06T04:11:22.191Z,44.93
2018-09-06T04:13:50.709Z,44.90
2018-09-06T04:16:19.381Z,44.73
2018-09-06T04:18:47.830Z,47.23
2018-09-06T04:21:16.368Z,47.10
2018-09-06T04:23:44.836Z,47.00
2018-09-06T04:26:13.300Z,52.83
2018-09-06T04:28:41.804Z,51.27
2018-09-06T04:31:10.315Z,49.67
2018-09-06T04:33:38.872Z,46.57
2018-09-06T04:36:07.494Z,43.80
2018-09-06T04:38:35.965Z,45.57
2018-09-06T04:41:06.288Z,45.50
2018-09-06T04:43:34.770Z,45.80
2018-09-06T04:46:03.249Z,48.40
2018-09-06T04:48:31.896Z,48.30
2018-09-06T04:51:00.352Z,48.87
2018-09-06T04:53:28.766Z,46.90
2018-09-06T04:55:57.156Z,41.60
2018-09-06T04:58:25.680Z,41.90
2018-09-06T05:00:54.011Z,46.03
2018-09-06T05:03:22.423Z,44.80
2018-09-06T05:05:50.853Z,46.40
2018-09-06T05:08:19.291Z,49.40
2018-09-06T05:10:47.696Z,48.40
2018-09-06T05:13:16.121Z,47.93
2018-09-06T05:15:44.834Z,49.70
2018-09-06T05:18:13.323Z,46.63
2018-09-06T05:20:41.793Z,49.47
2018-09-06T05:23:10.224Z,48.87
2018-09-06T05:25:38.683Z,50.80
2018-09-06T05:28:07.189Z,52.03
2018-09-06T05:30:35.675Z,53.53
2018-09-06T05:33:04.061Z,53.03
2018-09-06T05:35:32.512Z,52.60
2018-09-06T05:38:00.913Z,51.73
2018-09-06T05:40:29.336Z,51.03
2018-09-06T05:42:57.881Z,51.47
2018-09-06T05:45:26.287Z,50.17
2018-09-06T05:47:58.261Z,52.37
2018-09-06T05:50:27.840Z,53.60
2018-09-06T05:52:56.296Z,51.63
2018-09-06T05:55:24.748Z,48.57
2018-09-06T05:57:53.628Z,53.30
2018-09-06T06:00:27.364Z,51.30
2018-09-06T06:02:57.347Z,53.90
2018-09-06T06:05:26.117Z,53.77
2018-09-06T06:08:05.742Z,54.40
2018-09-06T06:10:34.169Z,54.90
2018-09-06T06:13:02.605Z,55.70
2018-09-06T06:15:31.023Z,60.40
2018-09-06T06:17:59.480Z,57.83
2018-09-06T06:20:27.899Z,61.53
2018-09-06T06:22:56.318Z,63.77
2018-09-06T06:25:24.765Z,62.73
2018-09-06T06:27:53.241Z,61.30
2018-09-06T06:30:21.722Z,58.70
2018-09-06T06:32:50.221Z,61.40
2018-09-06T06:35:18.665Z,58.10
2018-09-06T06:39:12.965Z,53.07
2018-09-06T06:41:41.740Z,48.60
2018-09-06T06:44:10.684Z,43.87
2018-09-06T06:46:39.112Z,46.10
2018-09-06T06:49:07.791Z,46.07
2018-09-06T06:51:37.202Z,45.93
2018-09-06T06:54:05.693Z,46.77
2018-09-06T06:56:34.132Z,49.20
2018-09-06T06:59:02.544Z,50.80
2018-09-06T07:01:30.951Z,47.40
2018-09-06T07:03:59.372Z,53.50
2018-09-06T07:06:27.797Z,49.83
2018-09-06T07:08:56.196Z,49.00
2018-09-06T07:11:24.595Z,49.37
2018-09-06T07:13:53.036Z,47.50
2018-09-06T07:16:21.469Z,50.30
2018-09-06T07:18:49.891Z,49.43
2018-09-06T07:21:18.308Z,52.10
2018-09-06T07:23:46.783Z,52.13
2018-09-06T07:26:15.192Z,54.70
2018-09-06T07:28:43.603Z,51.33
2018-09-06T07:31:12.025Z,45.40
2018-09-06T07:33:40.440Z,47.67
2018-09-06T07:36:08.873Z,49.00
2018-09-06T07:38:37.268Z,47.43
2018-09-06T07:41:05.739Z,47.27
2018-09-06T07:43:34.140Z,45.53
2018-09-06T07:46:02.600Z,43.20
2018-09-06T07:48:30.984Z,40.37
2018-09-06T07:50:59.397Z,40.83
2018-09-06T07:53:27.812Z,41.67
2018-09-06T07:55:56.235Z,40.10
2018-09-06T07:58:24.950Z,41.70
2018-09-06T08:00:53.357Z,46.10
2018-09-06T08:03:21.793Z,46.30
2018-09-06T08:05:50.226Z,48.40
2018-09-06T08:08:18.657Z,52.10
2018-09-06T08:10:48.002Z,51.73
2018-09-06T08:13:16.421Z,53.70
2018-09-06T08:15:44.869Z,52.50
2018-09-06T08:18:13.292Z,51.07
2018-09-06T08:20:41.765Z,54.70
2018-09-06T08:23:10.237Z,54.43
2018-09-06T08:25:39.676Z,53.17
2018-09-06T08:28:08.124Z,54.00
2018-09-06T08:30:36.734Z,54.27
2018-09-06T08:33:05.081Z,52.53
2018-09-06T08:35:33.507Z,53.77
2018-09-06T08:38:02.131Z,55.03
2018-09-06T08:40:30.593Z,53.60
2018-09-06T08:42:59.028Z,54.17
2018-09-06T08:45:27.509Z,52.30
2018-09-06T08:47:56.067Z,53.90
2018-09-06T08:50:24.469Z,52.07
2018-09-06T08:52:52.920Z,50.03
2018-09-06T08:55:21.361Z,48.80
2018-09-06T08:57:49.760Z,50.37
2018-09-06T09:00:18.209Z,49.27
2018-09-06T09:02:46.844Z,46.33
2018-09-06T09:05:15.142Z,45.03
2018-09-06T09:07:43.554Z,44.77
2018-09-06T09:10:11.984Z,44.97
2018-09-06T09:12:40.413Z,46.20
2018-09-06T09:15:08.873Z,46.73
2018-09-06T09:17:37.284Z,51.17
2018-09-06T09:20:05.765Z,58.77
2018-09-06T09:22:34.207Z,43.87
2018-09-06T09:25:02.652Z,44.00
2018-09-06T09:27:31.068Z,44.37
2018-09-06T09:29:59.524Z,43.73
2018-09-06T09:32:28.003Z,41.37
2018-09-06T09:34:56.446Z,44.77
2018-09-06T09:37:25.008Z,51.87
2018-09-06T09:39:53.453Z,45.33
2018-09-06T09:42:21.888Z,43.37
2018-09-06T09:44:50.329Z,45.77
2018-09-06T09:49:46.617Z,42.50
2018-09-06T09:52:15.249Z,42.70
2018-09-06T09:54:43.660Z,41.03
2018-09-06T09:57:12.216Z,50.07
2018-09-06T09:59:40.683Z,42.63
2018-09-06T10:02:14.482Z,43.53
2018-09-06T10:04:48.257Z,41.53
2018-09-06T10:07:21.961Z,42.40
2018-09-06T10:09:50.419Z,42.37
2018-09-06T10:12:19.393Z,43.83
2018-09-06T10:14:47.998Z,41.67
2018-09-06T10:17:16.470Z,43.13
2018-09-06T10:19:44.956Z,50.00
2018-09-06T10:22:13.364Z,52.43
2018-09-06T10:24:41.817Z,52.83
2018-09-06T10:27:10.282Z,55.10
2018-09-06T10:29:38.725Z,55.00
2018-09-06T10:32:07.163Z,54.07
2018-09-06T10:34:35.612Z,52.30
2018-09-06T10:37:04.037Z,51.93
2018-09-06T10:39:32.515Z,52.87
2018-09-06T10:42:00.964Z,53.70
2018-09-06T10:45:32.313Z,50.67
2018-09-06T10:48:00.833Z,48.70
2018-09-06T10:50:29.480Z,50.43
2018-09-06T10:52:57.974Z,49.90
2018-09-06T10:55:26.453Z,46.90
2018-09-06T10:57:54.896Z,48.93
2018-09-06T11:00:23.344Z,48.27
2018-09-06T11:02:51.929Z,48.00
2018-09-06T11:05:20.360Z,49.70
2018-09-06T11:07:48.898Z,46.63
2018-09-06T11:10:17.316Z,48.30
2018-09-06T11:12:45.739Z,47.20
2018-09-06T11:15:14.142Z,45.97
2018-09-06T11:19:07.011Z,46.13
2018-09-06T11:21:35.570Z,42.97
2018-09-06T11:24:03.918Z,45.07
2018-09-06T11:26:32.352Z,41.43
2018-09-06T11:29:00.909Z,42.83
2018-09-06T11:31:29.366Z,40.80
2018-09-06T11:33:57.807Z,39.90
2018-09-06T11:36:26.296Z,39.70
2018-09-06T11:38:54.727Z,39.60
2018-09-06T11:41:23.177Z,43.10
2018-09-06T11:43:51.752Z,44.30
2018-09-06T11:46:20.179Z,44.43
2018-09-06T11:48:48.657Z,42.50
2018-09-06T11:51:17.144Z,45.87
2018-09-06T11:53:45.615Z,47.20
2018-09-06T11:56:14.039Z,43.00
2018-09-06T11:58:42.489Z,40.37
2018-09-06T12:01:10.933Z,40.27
2018-09-06T12:03:39.432Z,36.07
2018-09-06T12:06:07.895Z,30.90
2018-09-06T12:08:36.388Z,29.30
2018-09-06T12:11:04.872Z,26.03
2018-09-06T12:13:33.297Z,27.33
2018-09-06T12:16:01.759Z,25.50
2018-09-06T12:18:30.237Z,28.40
2018-09-06T12:20:58.788Z,27.70
2018-09-06T12:23:27.908Z,29.60
2018-09-06T12:25:56.449Z,29.23
2018-09-06T12:28:24.970Z,33.43
2018-09-06T12:30:53.475Z,35.87
2018-09-06T12:33:23.304Z,34.07
2018-09-06T12:35:51.924Z,35.27
2018-09-06T12:38:20.518Z,34.23
2018-09-06T12:40:49.700Z,32.73
2018-09-06T12:43:18.193Z,34.10
2018-09-06T12:45:46.700Z,35.40
2018-09-06T12:48:15.141Z,35.67
2018-09-06T12:50:43.644Z,36.93
2018-09-06T12:53:12.124Z,34.80
2018-09-06T12:55:40.671Z,36.17
2018-09-06T12:58:09.622Z,34.70
2018-09-06T13:00:38.285Z,34.57
2018-09-06T13:03:06.758Z,37.50
2018-09-06T13:05:35.165Z,34.80
2018-09-06T13:08:03.617Z,32.87
2018-09-06T13:10:32.051Z,34.17
2018-09-06T13:13:00.519Z,32.90
2018-09-06T13:15:28.929Z,33.17
2018-09-06T13:17:57.392Z,31.63
2018-09-06T13:20:25.866Z,33.37
2018-09-06T13:22:54.292Z,33.80
2018-09-06T13:25:22.842Z,34.67
2018-09-06T13:27:51.353Z,35.43
2018-09-06T13:30:19.781Z,36.70
2018-09-06T13:32:48.202Z,37.73
2018-09-06T13:35:16.636Z,35.43
2018-09-06T13:37:45.135Z,38.57
2018-09-06T13:40:13.670Z,38.47
2018-09-06T13:42:42.065Z,38.33
2018-09-06T13:45:10.521Z,39.50
2018-09-06T13:47:38.937Z,37.67
2018-09-06T13:50:07.484Z,39.63
2018-09-06T13:52:36.027Z,37.40
2018-09-06T13:55:04.495Z,39.20
2018-09-06T13:57:32.920Z,40.33
2018-09-06T14:00:01.553Z,40.87
2018-09-06T14:02:29.896Z,36.60
2018-09-06T14:04:58.306Z,37.53
2018-09-06T14:07:26.727Z,37.63
2018-09-06T14:09:55.176Z,36.77
2018-09-06T14:12:23.622Z,36.80
2018-09-06T14:14:52.076Z,35.87
2018-09-06T14:17:20.528Z,37.23
2018-09-06T14:19:48.960Z,35.43
2018-09-06T14:22:17.743Z,37.23
2018-09-06T14:24:46.184Z,39.27
2018-09-06T14:27:14.622Z,40.60
2018-09-06T14:29:43.258Z,39.67
2018-09-06T14:32:11.788Z,39.77
2018-09-06T14:34:40.320Z,39.37
2018-09-06T14:37:08.756Z,38.93
2018-09-06T14:39:37.225Z,37.73
2018-09-06T14:42:05.797Z,39.57
2018-09-06T14:44:34.284Z,36.20
2018-09-06T14:47:02.714Z,36.90
2018-09-06T14:49:31.313Z,37.97
2018-09-06T14:51:59.749Z,39.20
2018-09-06T14:54:28.176Z,39.77
2018-09-06T14:56:56.596Z,37.10
2018-09-06T14:59:25.138Z,35.87
2018-09-06T15:01:53.648Z,38.37
2018-09-06T15:04:22.090Z,49.33
2018-09-06T15:06:50.591Z,40.10
2018-09-06T15:09:19.022Z,38.50
2018-09-06T15:11:47.533Z,37.33
2018-09-06T15:14:15.971Z,37.03
2018-09-06T15:16:44.447Z,34.63
2018-09-06T15:19:12.979Z,35.80
2018-09-06T15:21:41.577Z,38.10
2018-09-06T15:24:10.266Z,34.20
2018-09-06T15:26:39.739Z,35.87
2018-09-06T15:29:08.481Z,35.00
2018-09-06T15:31:38.917Z,35.87
2018-09-06T15:34:07.519Z,36.00
2018-09-06T15:36:36.181Z,37.03
2018-09-06T15:39:07.177Z,40.30
2018-09-06T15:41:35.998Z,38.63
2018-09-06T15:44:06.190Z,38.80
2018-09-06T15:46:36.052Z,37.83
2018-09-06T15:49:05.188Z,36.83
2018-09-06T15:51:35.092Z,34.70
2018-09-06T15:54:03.545Z,36.90
2018-09-06T15:56:32.121Z,35.80
2018-09-06T15:59:02.350Z,34.33
2018-09-06T16:01:32.803Z,34.77
2018-09-06T16:04:03.961Z,36.07
2018-09-06T16:06:34.849Z,34.00
2018-09-06T16:09:05.934Z,34.67
2018-09-06T16:11:34.733Z,32.90
2018-09-06T16:14:03.397Z,34.47
2018-09-06T16:16:31.868Z,32.40
2018-09-06T16:19:00.416Z,35.83
2018-09-06T16:21:28.940Z,34.70
2018-09-06T16:23:57.425Z,34.63
2018-09-06T16:26:25.884Z,33.37
2018-09-06T16:28:54.397Z,35.57
2018-09-06T16:31:22.848Z,34.40
2018-09-06T16:33:51.565Z,36.07
2018-09-06T16:36:20.141Z,35.50
2018-09-06T16:38:49.146Z,35.70
2018-09-06T16:41:17.641Z,34.57
2018-09-06T16:43:46.531Z,32.70
2018-09-06T16:46:14.985Z,31.07
2018-09-06T16:48:43.457Z,31.13
2018-09-06T16:51:11.936Z,30.77
2018-09-06T16:53:40.426Z,31.20
2018-09-06T16:56:08.905Z,32.60
2018-09-06T16:58:37.394Z,31.43
2018-09-06T17:01:05.929Z,33.73
2018-09-06T17:03:34.397Z,32.93
2018-09-06T17:06:03.065Z,35.07
2018-09-06T17:08:31.564Z,34.33
2018-09-06T17:11:00.080Z,33.97
2018-09-06T17:13:28.576Z,34.73
2018-09-06T17:15:57.136Z,36.00
2018-09-06T17:18:25.674Z,36.27
2018-09-06T17:20:54.201Z,37.10
2018-09-06T17:23:22.944Z,38.97
2018-09-06T17:25:51.428Z,38.10
2018-09-06T17:28:19.900Z,37.93
2018-09-06T17:32:12.921Z,37.23
2018-09-06T17:34:41.358Z,37.40
2018-09-06T17:37:09.830Z,36.77
2018-09-06T17:39:38.377Z,34.73
2018-09-06T17:42:07.105Z,35.63
2018-09-06T17:44:35.622Z,38.43
2018-09-06T17:47:04.100Z,35.33
2018-09-06T17:49:32.556Z,35.40
2018-09-06T17:52:01.073Z,35.90
2018-09-06T17:54:29.626Z,37.50
2018-09-06T17:56:58.111Z,35.90
2018-09-06T17:59:26.589Z,35.17
2018-09-06T18:01:55.297Z,34.77
2018-09-06T18:04:25.002Z,37.60
2018-09-06T18:06:53.481Z,35.47
2018-09-06T18:09:22.019Z,34.90
2018-09-06T18:11:50.532Z,35.70
2018-09-06T18:14:19.025Z,33.83
2018-09-06T18:16:47.605Z,35.47
2018-09-06T18:19:16.129Z,35.67
2018-09-06T18:21:44.689Z,37.30
2018-09-06T18:24:13.187Z,36.40
2018-09-06T18:26:41.749Z,36.77
2018-09-06T18:29:10.237Z,36.67
2018-09-06T18:31:38.697Z,35.13
2018-09-06T18:34:07.185Z,37.57
2018-09-06T18:36:35.646Z,36.40
2018-09-06T18:39:05.417Z,38.30
2018-09-06T18:41:34.102Z,39.10
2018-09-06T18:44:02.701Z,39.20
2018-09-06T18:46:31.100Z,39.80
2018-09-06T18:48:59.616Z,41.00
2018-09-06T18:51:28.060Z,40.77
2018-09-06T18:53:56.576Z,40.10
2018-09-06T18:56:25.013Z,35.97
2018-09-06T18:58:53.525Z,33.63
2018-09-06T19:01:22.289Z,26.77
2018-09-06T19:03:50.958Z,23.03
2018-09-06T19:06:19.713Z,18.40
2018-09-06T19:08:48.181Z,15.70
2018-09-06T19:11:16.692Z,14.27
2018-09-06T19:13:45.221Z,15.27
2018-09-06T19:16:13.733Z,15.07
2018-09-06T19:18:42.212Z,14.80
2018-09-06T19:21:10.649Z,15.30
2018-09-06T19:23:39.237Z,14.00
2018-09-06T19:26:07.758Z,13.73
2018-09-06T19:28:36.230Z,13.37
2018-09-06T19:31:04.933Z,13.10
2018-09-06T19:33:33.481Z,11.77
2018-09-06T19:36:02.010Z,13.00
2018-09-06T19:38:30.461Z,10.83
2018-09-06T19:40:58.976Z,10.77
2018-09-06T19:43:27.468Z,9.03
2018-09-06T19:45:55.994Z,10.50
2018-09-06T19:48:24.500Z,10.07
2018-09-06T19:50:52.975Z,10.17
2018-09-06T19:53:21.433Z,10.40
2018-09-06T19:55:50.352Z,10.40
2018-09-06T19:58:18.886Z,9.83
2018-09-06T20:00:47.380Z,10.40
2018-09-06T20:03:15.865Z,10.93
2018-09-06T20:05:44.329Z,10.43
2018-09-06T20:08:12.972Z,9.10
2018-09-06T20:10:41.429Z,9.20
2018-09-06T20:13:09.939Z,9.00
2018-09-06T20:15:38.601Z,9.70
2018-09-06T20:18:07.125Z,9.33
2018-09-06T20:20:35.604Z,9.40
2018-09-06T20:23:04.048Z,9.37
2018-09-06T20:25:32.529Z,10.50
2018-09-06T20:28:01.195Z,9.73
2018-09-06T20:30:29.660Z,10.30
2018-09-06T20:32:58.204Z,9.27
2018-09-06T20:35:26.738Z,9.53
2018-09-06T20:37:55.269Z,9.17
2018-09-06T20:40:23.693Z,8.63
2018-09-06T20:42:53.236Z,8.03
2018-09-06T20:45:21.708Z,8.73
2018-09-06T20:47:50.255Z,9.53
2018-09-06T20:50:18.785Z,8.80
2018-09-06T20:52:47.246Z,8.83
2018-09-06T20:55:15.748Z,8.17
2018-09-06T20:57:44.198Z,8.43
2018-09-06T21:00:12.777Z,8.83
2018-09-06T21:02:41.268Z,8.63
2018-09-06T21:05:10.188Z,10.20
2018-09-06T21:07:38.749Z,10.13
2018-09-06T21:10:07.297Z,10.10
2018-09-06T21:12:35.861Z,9.50
2018-09-06T21:15:04.321Z,9.87
2018-09-06T21:17:32.784Z,9.80
2018-09-06T21:20:01.356Z,10.70
2018-09-06T21:22:30.098Z,11.20
2018-09-06T21:24:58.560Z,10.40
2018-09-06T21:27:27.083Z,9.80
2018-09-06T21:29:55.717Z,10.00
2018-09-06T21:32:24.209Z,10.40
2018-09-06T21:34:52.720Z,10.73
2018-09-06T21:37:21.144Z,10.27
2018-09-06T21:39:49.649Z,10.50
2018-09-06T21:42:18.130Z,9.83
2018-09-06T21:44:46.589Z,10.00
2018-09-06T21:47:15.091Z,10.20
2018-09-06T21:49:43.581Z,12.53
2018-09-06T21:52:12.033Z,9.57
2018-09-06T21:54:40.579Z,12.73
2018-09-06T21:57:09.143Z,10.67
2018-09-06T21:59:37.700Z,10.50
2018-09-06T22:02:06.333Z,10.07
2018-09-06T22:04:34.864Z,9.87
2018-09-06T22:07:03.333Z,10.40
2018-09-06T22:09:31.920Z,10.27
2018-09-06T22:12:00.384Z,9.87
2018-09-06T22:14:28.872Z,10.53
2018-09-06T22:16:57.430Z,8.93
2018-09-06T22:19:25.969Z,10.00
2018-09-06T22:21:54.454Z,9.13
2018-09-06T22:24:22.942Z,8.70
2018-09-06T22:26:51.362Z,10.73
2018-09-06T22:29:19.891Z,7.40
2018-09-06T22:31:48.353Z,8.30
2018-09-06T22:34:17.643Z,8.07
2018-09-06T22:36:46.123Z,7.90
2018-09-06T22:39:14.599Z,7.60
2018-09-06T22:41:43.090Z,8.50
2018-09-06T22:44:11.571Z,7.60
2018-09-06T22:46:40.064Z,7.10
2018-09-06T22:49:08.583Z,8.17
2018-09-06T22:51:37.037Z,7.97
2018-09-06T22:54:05.664Z,8.43
2018-09-06T22:56:34.080Z,7.93
2018-09-06T22:59:02.574Z,9.10
2018-09-06T23:01:31.073Z,8.13
2018-09-06T23:03:59.525Z,8.67
2018-09-06T23:06:28.032Z,7.93
2018-09-06T23:08:56.541Z,8.17
2018-09-06T23:11:24.956Z,7.90
2018-09-06T23:13:53.449Z,8.03
2018-09-06T23:16:21.953Z,8.13
2018-09-06T23:18:50.617Z,8.90
2018-09-06T23:21:19.129Z,9.10
2018-09-06T23:23:47.604Z,8.23
2018-09-06T23:26:16.094Z,9.63
2018-09-06T23:28:44.552Z,8.73
2018-09-06T23:31:13.065Z,9.37
2018-09-06T23:33:41.526Z,9.47
2018-09-06T23:36:09.995Z,10.13
2018-09-06T23:38:38.522Z,10.33
2018-09-06T23:41:07.000Z,10.03
2018-09-06T23:43:35.509Z,10.40
2018-09-06T23:46:04.156Z,10.77
2018-09-06T23:48:32.642Z,11.00
2018-09-06T23:51:01.108Z,10.07
2018-09-06T23:53:29.593Z,10.33
2018-09-06T23:55:58.091Z,10.50
2018-09-06T23:58:26.580Z,10.07
